• Join FlightAware (Why Join?)
  • Login
  • US Flag 
03:35AM EDT


 

Airport Tracker/Info


-or-


 

Live Flight TrackerFlight Track Log ✈ SKW6345 ✈ 03-May-2013 ✈ KDEN - KPHX

Flight Track Log - Related Links

Times and Time Zones

All times are in EDT time to prevent confusion due to time zone crossing. See the SKW6345 flight status page for this flight to view local times or setup timezone preferences in your user account.

Time Position Orientation Groundspeed Altitude Reporting Facility
EDT Latitude Longitude Course Direction KTS MPH feet Rate Location/Type
11:44AM 39.8333 -104.7333 233° Southwest 176 203 6,100  Level Denver TRACON
11:44AM 39.8408 -104.7553 294° West 177 204 6,600 1,920 Climbing Denver Center
11:45AM 39.8186 -104.8428 252° West 241 277 8,700 2,220 Climbing Denver Center
11:46AM 39.7644 -104.9106 224° Southwest 279 321 11,200 2,040 Climbing Denver Center
11:47AM 39.6736 -104.9581 202° Southwest 338 389 13,000 2,040 Climbing Denver Center
11:48AM 39.4365 -104.5469 218° Southwest  Level FlightAware Approximate
11:48AM 39.5783 -104.9764 188° South 357 411 15,500  Level Denver Center
11:49AM 39.3535 -104.6680 233° Southwest  Level FlightAware Approximate
11:49AM 39.4697 -104.9978 189° South 370 426 17,900  Level Denver Center
11:50AM 39.3650 -105.0183 189° South 381 438 19,700 1,860 Climbing Denver Center
11:51AM 39.2489 -105.0400 188° South 394 453 21,800 1,740 Climbing Denver Center
11:52AM 39.1383 -105.0658 190° South 385 443 23,400 1,260 Climbing Denver Center
11:53AM 39.0381 -105.1281 206° Southwest 414 476 24,500 1,200 Climbing Denver Center
11:54AM 38.9283 -105.1975 206° Southwest 431 496 26,000 1,680 Climbing Denver Center
11:55AM 38.8203 -105.2686 207° Southwest 433 498 28,000 1,980 Climbing Denver Center
11:56AM 38.6958 -105.3453 206° Southwest 423 487 30,100 1,560 Climbing Denver Center
11:57AM 38.5892 -105.4144 207° Southwest 423 487 31,300 1,020 Climbing Denver Center
11:58AM 38.4797 -105.4825 206° Southwest 433 498 32,300 960 Climbing Denver Center
11:59AM 38.3681 -105.5539 207° Southwest 441 507 33,400 1,020 Climbing Denver Center
12:01PM 38.2650 -105.6631 220° Southwest 437 503 34,500 960 Climbing Denver Center
12:02PM 38.1822 -105.7636 224° Southwest 432 497 35,400 960 Climbing Denver Center
12:03PM 38.0822 -105.8817 223° Southwest 438 504 36,500 960 Climbing Denver Center
12:04PM 38.0014 -105.9803 224° Southwest 427 491 37,500 720 Climbing Denver Center
12:05PM 37.9186 -106.0792 223° Southwest 427 491 38,000 240 Climbing Denver Center
12:06PM 37.8175 -106.2017 224° Southwest 438 504 38,000  Level Denver Center
12:07PM 37.7294 -106.3050 223° Southwest 448 516 38,000  Level Denver Center
12:08PM 37.6269 -106.4264 223° Southwest 450 518 38,000  Level Denver Center
12:09PM 37.5419 -106.5272 223° Southwest 441 507 38,000  Level Denver Center
12:10PM 37.4422 -106.6428 223° Southwest 435 501 38,000  Level Denver Center
12:11PM 37.3583 -106.7436 224° Southwest 437 503 38,000  Level Denver Center
12:12PM 37.2569 -106.8614 223° Southwest 444 511 38,000  Level Denver Center
12:13PM 37.1692 -106.9639 223° Southwest 447 514 38,000  Level Denver Center
12:14PM 37.0806 -107.0661 223° Southwest 451 519 38,000  Level Denver Center
12:15PM 36.9781 -107.1844 223° Southwest 449 517 38,000  Level Denver Center
12:16PM 36.8903 -107.2844 222° Southwest 447 514 38,000  Level Denver Center
12:17PM 36.7903 -107.3992 223° Southwest 438 504 38,000  Level Denver Center
12:18PM 36.7061 -107.4981 223° Southwest 434 499 38,000  Level Denver Center
12:19PM 36.6058 -107.6111 222° Southwest 434 499 38,000  Level Denver Center
12:20PM 36.5211 -107.7078 223° Southwest 432 497 38,000  Level Denver Center
12:21PM 36.4239 -107.8194 223° Southwest 428 493 38,000  Level Denver Center
12:22PM 36.3383 -107.9156 222° Southwest 431 496 38,000  Level Denver Center
12:23PM 36.2367 -108.0292 222° Southwest 436 502 38,000  Level Denver Center
12:24PM 36.1506 -108.1269 223° Southwest 438 504 38,000  Level Denver Center
12:25PM 36.0769 -108.2100 222° Southwest 440 506 38,000  Level Albuquerque Center
12:26PM 35.9736 -108.3250 222° Southwest 444 511 38,000 -480 Level Albuquerque Center
12:27PM 35.8858 -108.4236 222° Southwest 443 510 37,100 -1,020 Descending Albuquerque Center
12:28PM 35.7822 -108.5375 222° Southwest 443 510 36,000 -540 Descending Albuquerque Center
12:29PM 35.6942 -108.6356 222° Southwest 443 510 36,000  Level Albuquerque Center
12:30PM 35.5911 -108.7486 222° Southwest 441 507 36,000  Level Albuquerque Center
12:31PM 35.5033 -108.8453 222° Southwest 441 507 36,000  Level Albuquerque Center
12:32PM 35.4206 -108.9467 225° Southwest 439 505 36,000  Level Albuquerque Center
12:33PM 35.3264 -109.0692 227° Southwest 440 506 36,000  Level Albuquerque Center
12:34PM 35.2456 -109.1736 227° Southwest 440 506 36,000  Level Albuquerque Center
12:36PM 35.1522 -109.2947 227° Southwest 438 504 36,000  Level Albuquerque Center
12:37PM 35.0714 -109.3967 226° Southwest 437 503 36,000  Level Albuquerque Center
12:38PM 34.9764 -109.5128 225° Southwest 433 498 36,000  Level Albuquerque Center
12:39PM 34.8961 -109.6161 227° Southwest 434 499 36,000  Level Albuquerque Center
12:40PM 34.8036 -109.7342 226° Southwest 433 498 36,000  Level Albuquerque Center
12:41PM 34.7244 -109.8344 226° Southwest 430 495 36,000  Level Albuquerque Center
12:42PM 34.6650 -109.9747 243° Southwest 414 476 36,000  Level Albuquerque Center
12:43PM 34.6192 -110.0972 246° West 414 476 36,000 -420 Level Albuquerque Center
12:44PM 34.5664 -110.2383 246° West 413 475 35,200 -1,260 Descending Albuquerque Center
12:45PM 34.5197 -110.3603 245° Southwest 414 476 33,400 -1,740 Descending Albuquerque Center
12:46PM 34.4742 -110.4867 246° West 422 486 31,700 -1,860 Descending Albuquerque Center
12:47PM 34.4203 -110.6275 245° Southwest 416 479 29,600 -1,980 Descending Albuquerque Center
12:48PM 34.3778 -110.7394 245° Southwest 403 464 27,700 -1,920 Descending Albuquerque Center
12:49PM 34.3197 -110.8414 235° Southwest 385 443 25,700 -2,160 Descending Albuquerque Center
12:50PM 34.2339 -110.9533 227° Southwest 382 440 23,300 -2,040 Descending Albuquerque Center
12:51PM 34.1700 -111.0361 227° Southwest 373 429 21,500 -1,560 Descending Albuquerque Center
12:52PM 34.1000 -111.1239 226° Southwest 357 411 20,100 -1,260 Descending Albuquerque Center
12:53PM 34.0350 -111.2092 227° Southwest 350 403 18,900 -1,380 Descending Albuquerque Center
12:54PM 33.9547 -111.3086 226° Southwest 347 399 17,300 -1,560 Descending Albuquerque Center
12:55PM 33.8894 -111.3928 227° Southwest 319 367 15,700 -1,500 Descending Albuquerque Center
12:56PM 33.8425 -111.4753 236° Southwest 298 343 14,300 -1,500 Descending Albuquerque Center
12:57PM 33.7986 -111.5597 238° Southwest 297 342 12,700 -1,680 Descending Albuquerque Center
12:58PM 33.7506 -111.6506 238° Southwest 299 344 10,900 -1,500 Descending Albuquerque Center
12:59PM 33.7075 -111.7317 237° Southwest 291 335 9,700 -960 Descending Albuquerque Center
01:00PM 33.6589 -111.8203 237° Southwest 294 338 9,000 -360 Descending Albuquerque Center
01:01PM 33.6164 -111.8983 237° Southwest 282 325 9,000 -240 Level Albuquerque Center
01:02PM 33.5772 -111.9725 238° Southwest 248 285 8,600 -780 Descending Albuquerque Center
01:03PM 33.5411 -112.0431 238° Southwest 249 287 7,400 -1,260 Descending Albuquerque Center
01:04PM 33.5250 -112.1239 257° West 238 274 6,000 -1,560 Descending Albuquerque Center
01:06PM 33.5031 -112.1919 249° West 237 273 4,200 -1,500 Descending Albuquerque Center
01:07PM 33.4556 -112.1647 154° Southeast 195 224 3,000 -840 Descending Albuquerque Center
01:08PM 33.4406 -112.1125 109° East 174 200 2,500 -540 Descending Albuquerque Center